sensor_id;sensor_type;location;lat;lon;timestamp;pressure;altitude;pressure_sealevel;temperature;humidity
75604;BME280;64187;51.010;13.792;2024-03-06T00:02:30;100492.88;;;3.72;84.06
75604;BME280;64187;51.010;13.792;2024-03-06T00:07:29;100494.91;;;3.70;83.99
75604;BME280;64187;51.010;13.792;2024-03-06T00:12:27;100502.38;;;3.53;84.43
75604;BME280;64187;51.010;13.792;2024-03-06T00:17:26;100501.38;;;4.03;81.12
75604;BME280;64187;51.010;13.792;2024-03-06T00:22:26;100501.13;;;3.98;82.56
75604;BME280;64187;51.010;13.792;2024-03-06T00:27:25;100505.59;;;3.91;83.70
75604;BME280;64187;51.010;13.792;2024-03-06T00:32:24;100516.53;;;3.47;85.05
75604;BME280;64187;51.010;13.792;2024-03-06T00:37:22;100517.94;;;3.42;86.29
75604;BME280;64187;51.010;13.792;2024-03-06T00:42:21;100513.84;;;4.18;84.88
75604;BME280;64187;51.010;13.792;2024-03-06T00:47:20;100521.81;;;4.11;82.92
75604;BME280;64187;51.010;13.792;2024-03-06T00:52:20;100515.25;;;4.14;83.58
75604;BME280;64187;51.010;13.792;2024-03-06T00:57:19;100522.03;;;4.44;81.77
75604;BME280;64187;51.010;13.792;2024-03-06T01:02:18;100514.06;;;3.95;84.95
75604;BME280;64187;51.010;13.792;2024-03-06T01:07:17;100521.03;;;3.89;85.49
75604;BME280;64187;51.010;13.792;2024-03-06T01:12:15;100522.16;;;4.01;84.43
75604;BME280;64187;51.010;13.792;2024-03-06T01:17:14;100528.97;;;4.04;84.95
75604;BME280;64187;51.010;13.792;2024-03-06T01:22:13;100531.41;;;3.99;85.14
75604;BME280;64187;51.010;13.792;2024-03-06T01:27:12;100536.22;;;3.82;85.56
75604;BME280;64187;51.010;13.792;2024-03-06T01:32:11;100536.66;;;3.85;86.20
75604;BME280;64187;51.010;13.792;2024-03-06T01:37:10;100540.34;;;3.84;86.27
75604;BME280;64187;51.010;13.792;2024-03-06T01:42:09;100542.53;;;3.53;88.38
75604;BME280;64187;51.010;13.792;2024-03-06T01:47:08;100541.06;;;3.50;87.85
75604;BME280;64187;51.010;13.792;2024-03-06T01:52:09;100538.13;;;3.23;89.79
75604;BME280;64187;51.010;13.792;2024-03-06T01:57:10;100545.19;;;3.53;87.54
75604;BME280;64187;51.010;13.792;2024-03-06T02:02:12;100541.69;;;3.52;87.85
75604;BME280;64187;51.010;13.792;2024-03-06T02:07:11;100552.88;;;3.56;87.03
75604;BME280;64187;51.010;13.792;2024-03-06T02:12:12;100550.03;;;3.21;88.06
75604;BME280;64187;51.010;13.792;2024-03-06T02:17:11;100552.50;;;3.22;87.92
75604;BME280;64187;51.010;13.792;2024-03-06T02:22:10;100543.25;;;3.61;86.38
75604;BME280;64187;51.010;13.792;2024-03-06T02:27:10;100550.47;;;3.24;87.11
75604;BME280;64187;51.010;13.792;2024-03-06T02:32:09;100555.00;;;3.24;87.24
75604;BME280;64187;51.010;13.792;2024-03-06T02:37:08;100559.25;;;3.18;87.80
75604;BME280;64187;51.010;13.792;2024-03-06T02:42:07;100562.47;;;3.29;86.76
75604;BME280;64187;51.010;13.792;2024-03-06T02:47:05;100573.78;;;2.79;88.48
75604;BME280;64187;51.010;13.792;2024-03-06T02:52:04;100579.41;;;2.85;89.23
75604;BME280;64187;51.010;13.792;2024-03-06T02:57:03;100578.81;;;3.19;87.49
75604;BME280;64187;51.010;13.792;2024-03-06T03:02:02;100582.81;;;2.78;87.61
75604;BME280;64187;51.010;13.792;2024-03-06T03:07:02;100572.75;;;2.66;87.90
75604;BME280;64187;51.010;13.792;2024-03-06T03:12:00;100581.00;;;3.15;86.85
75604;BME280;64187;51.010;13.792;2024-03-06T03:17:03;100574.81;;;2.78;86.11
75604;BME280;64187;51.010;13.792;2024-03-06T03:22:04;100584.84;;;2.62;86.69
75604;BME280;64187;51.010;13.792;2024-03-06T03:27:03;100597.63;;;2.36;87.93
75604;BME280;64187;51.010;13.792;2024-03-06T03:32:02;100602.53;;;2.77;85.89
75604;BME280;64187;51.010;13.792;2024-03-06T03:37:01;100604.97;;;2.34;87.86
75604;BME280;64187;51.010;13.792;2024-03-06T03:42:00;100605.28;;;2.02;90.22
75604;BME280;64187;51.010;13.792;2024-03-06T03:46:58;100610.50;;;2.33;87.92
75604;BME280;64187;51.010;13.792;2024-03-06T03:51:57;100619.44;;;2.02;89.04
75604;BME280;64187;51.010;13.792;2024-03-06T03:56:56;100616.59;;;1.81;90.99
75604;BME280;64187;51.010;13.792;2024-03-06T04:01:57;100620.16;;;2.19;89.37
75604;BME280;64187;51.010;13.792;2024-03-06T04:06:56;100637.19;;;1.95;90.83
75604;BME280;64187;51.010;13.792;2024-03-06T04:11:58;100631.94;;;2.25;89.31
75604;BME280;64187;51.010;13.792;2024-03-06T04:16:57;100648.97;;;2.01;89.90
75604;BME280;64187;51.010;13.792;2024-03-06T04:21:56;100648.44;;;2.28;89.17
75604;BME280;64187;51.010;13.792;2024-03-06T04:26:54;100649.91;;;2.31;88.79
75604;BME280;64187;51.010;13.792;2024-03-06T04:31:53;100639.09;;;2.47;88.38
75604;BME280;64187;51.010;13.792;2024-03-06T04:36:53;100655.44;;;2.67;87.30
75604;BME280;64187;51.010;13.792;2024-03-06T04:41:52;100659.03;;;2.74;87.58
75604;BME280;64187;51.010;13.792;2024-03-06T04:46:51;100663.63;;;2.80;87.71
75604;BME280;64187;51.010;13.792;2024-03-06T04:51:49;100662.09;;;3.01;86.18
75604;BME280;64187;51.010;13.792;2024-03-06T04:56:48;100671.22;;;2.92;87.34
75604;BME280;64187;51.010;13.792;2024-03-06T05:01:47;100672.25;;;2.91;88.03
75604;BME280;64187;51.010;13.792;2024-03-06T05:06:46;100679.63;;;3.18;87.04
75604;BME280;64187;51.010;13.792;2024-03-06T05:12:03;100677.78;;;3.04;86.58
75604;BME280;64187;51.010;13.792;2024-03-06T05:17:21;100679.09;;;3.08;87.99
75604;BME280;64187;51.010;13.792;2024-03-06T05:22:38;100691.31;;;3.32;85.40
75604;BME280;64187;51.010;13.792;2024-03-06T05:27:54;100695.84;;;7.53;100.00
75604;BME280;64187;51.010;13.792;2024-03-06T05:33:10;100700.81;;;8.33;81.30
75604;BME280;64187;51.010;13.792;2024-03-06T05:38:27;100705.06;;;9.41;69.12
75604;BME280;64187;51.010;13.792;2024-03-06T05:43:43;100710.06;;;6.95;66.50
75604;BME280;64187;51.010;13.792;2024-03-06T05:48:59;100720.38;;;5.22;72.97
75604;BME280;64187;51.010;13.792;2024-03-06T05:54:17;100730.03;;;3.81;79.26
75604;BME280;64187;51.010;13.792;2024-03-06T05:59:35;100720.41;;;3.06;84.50
75604;BME280;64187;51.010;13.792;2024-03-06T06:04:36;100735.69;;;3.27;85.07
75604;BME280;64187;51.010;13.792;2024-03-06T06:09:49;100750.09;;;3.11;85.13
75604;BME280;64187;51.010;13.792;2024-03-06T06:14:48;100757.72;;;2.61;88.68
75604;BME280;64187;51.010;13.792;2024-03-06T06:19:51;100765.97;;;2.74;88.58
75604;BME280;64187;51.010;13.792;2024-03-06T06:24:50;100773.91;;;2.83;88.52
75604;BME280;64187;51.010;13.792;2024-03-06T06:29:50;100776.16;;;2.94;88.80
75604;BME280;64187;51.010;13.792;2024-03-06T06:34:49;100782.56;;;3.22;86.76
75604;BME280;64187;51.010;13.792;2024-03-06T06:39:47;100788.41;;;3.03;88.45
75604;BME280;64187;51.010;13.792;2024-03-06T06:44:47;100786.78;;;3.02;88.80
75604;BME280;64187;51.010;13.792;2024-03-06T06:49:47;100791.88;;;3.27;86.35
75604;BME280;64187;51.010;13.792;2024-03-06T06:54:46;100788.44;;;3.18;86.86
75604;BME280;64187;51.010;13.792;2024-03-06T06:59:44;100791.06;;;3.71;84.48
75604;BME280;64187;51.010;13.792;2024-03-06T07:04:43;100804.97;;;3.21;87.16
75604;BME280;64187;51.010;13.792;2024-03-06T07:09:43;100798.91;;;3.57;86.82
75604;BME280;64187;51.010;13.792;2024-03-06T07:14:42;100797.16;;;3.64;85.55
75604;BME280;64187;51.010;13.792;2024-03-06T07:19:41;100797.44;;;3.55;85.33
75604;BME280;64187;51.010;13.792;2024-03-06T07:24:40;100800.66;;;3.65;85.60
75604;BME280;64187;51.010;13.792;2024-03-06T07:29:40;100799.81;;;3.50;85.82
75604;BME280;64187;51.010;13.792;2024-03-06T07:34:39;100810.84;;;4.57;81.36
75604;BME280;64187;51.010;13.792;2024-03-06T07:39:37;100817.53;;;4.89;78.98
75604;BME280;64187;51.010;13.792;2024-03-06T07:44:37;100819.97;;;4.63;79.49
75604;BME280;64187;51.010;13.792;2024-03-06T07:49:36;100821.31;;;4.73;80.58
75604;BME280;64187;51.010;13.792;2024-03-06T07:54:35;100827.13;;;5.27;78.98
75604;BME280;64187;51.010;13.792;2024-03-06T07:59:34;100819.81;;;5.42;77.08
75604;BME280;64187;51.010;13.792;2024-03-06T08:04:33;100818.53;;;5.10;78.07
75604;BME280;64187;51.010;13.792;2024-03-06T08:09:32;100829.34;;;5.86;76.70
75604;BME280;64187;51.010;13.792;2024-03-06T08:14:30;100828.75;;;6.25;72.80
75604;BME280;64187;51.010;13.792;2024-03-06T08:19:29;100833.84;;;6.07;73.66
75604;BME280;64187;51.010;13.792;2024-03-06T08:24:28;100841.09;;;6.13;73.17
75604;BME280;64187;51.010;13.792;2024-03-06T08:29:27;100838.28;;;5.87;75.75
75604;BME280;64187;51.010;13.792;2024-03-06T08:34:26;100845.00;;;5.76;74.68
75604;BME280;64187;51.010;13.792;2024-03-06T08:39:25;100840.13;;;6.28;73.60
75604;BME280;64187;51.010;13.792;2024-03-06T08:44:24;100846.25;;;6.69;72.05
75604;BME280;64187;51.010;13.792;2024-03-06T08:49:23;100844.78;;;6.60;72.82
75604;BME280;64187;51.010;13.792;2024-03-06T08:54:22;100847.66;;;6.52;73.29
75604;BME280;64187;51.010;13.792;2024-03-06T08:59:21;100850.44;;;6.92;71.44
75604;BME280;64187;51.010;13.792;2024-03-06T09:04:20;100851.09;;;7.21;70.93
75604;BME280;64187;51.010;13.792;2024-03-06T09:09:19;100854.75;;;6.93;70.55
75604;BME280;64187;51.010;13.792;2024-03-06T09:14:18;100858.94;;;7.16;70.31
75604;BME280;64187;51.010;13.792;2024-03-06T09:19:17;100855.00;;;7.51;68.15
75604;BME280;64187;51.010;13.792;2024-03-06T09:24:17;100852.66;;;7.88;67.10
75604;BME280;64187;51.010;13.792;2024-03-06T09:29:16;100852.41;;;8.03;66.28
75604;BME280;64187;51.010;13.792;2024-03-06T09:34:15;100853.50;;;8.47;63.83
75604;BME280;64187;51.010;13.792;2024-03-06T09:39:15;100861.44;;;8.22;63.18
75604;BME280;64187;51.010;13.792;2024-03-06T09:44:16;100860.88;;;8.07;65.07
75604;BME280;64187;51.010;13.792;2024-03-06T09:49:18;100867.19;;;8.46;63.01
75604;BME280;64187;51.010;13.792;2024-03-06T09:54:17;100874.66;;;8.50;61.82
75604;BME280;64187;51.010;13.792;2024-03-06T09:59:18;100874.34;;;8.20;62.18
75604;BME280;64187;51.010;13.792;2024-03-06T10:04:27;100868.78;;;8.60;60.90
75604;BME280;64187;51.010;13.792;2024-03-06T10:09:27;100868.66;;;9.12;59.42
75604;BME280;64187;51.010;13.792;2024-03-06T10:14:26;100871.47;;;9.23;61.15
75604;BME280;64187;51.010;13.792;2024-03-06T10:19:28;100876.13;;;8.39;64.85
75604;BME280;64187;51.010;13.792;2024-03-06T10:24:29;100875.31;;;8.32;65.18
75604;BME280;64187;51.010;13.792;2024-03-06T10:29:29;100884.75;;;7.90;66.35
75604;BME280;64187;51.010;13.792;2024-03-06T10:34:28;100884.56;;;7.91;67.53
75604;BME280;64187;51.010;13.792;2024-03-06T10:39:33;100884.31;;;8.06;66.16
75604;BME280;64187;51.010;13.792;2024-03-06T10:44:44;100884.13;;;8.08;64.90
75604;BME280;64187;51.010;13.792;2024-03-06T10:49:47;100880.69;;;8.46;65.58
75604;BME280;64187;51.010;13.792;2024-03-06T10:54:48;100882.88;;;9.00;63.74
75604;BME280;64187;51.010;13.792;2024-03-06T10:59:47;100881.03;;;8.62;65.11
75604;BME280;64187;51.010;13.792;2024-03-06T11:04:47;100879.81;;;8.52;66.18
75604;BME280;64187;51.010;13.792;2024-03-06T11:09:46;100891.22;;;8.54;64.45
75604;BME280;64187;51.010;13.792;2024-03-06T11:14:50;100898.47;;;8.60;65.34
75604;BME280;64187;51.010;13.792;2024-03-06T11:24:59;100894.34;;;8.51;64.48
75604;BME280;64187;51.010;13.792;2024-03-06T11:30:07;100899.50;;;8.59;61.96
75604;BME280;64187;51.010;13.792;2024-03-06T11:35:11;100890.03;;;8.43;61.19
75604;BME280;64187;51.010;13.792;2024-03-06T11:40:11;100900.13;;;8.61;61.12
75604;BME280;64187;51.010;13.792;2024-03-06T11:45:20;100893.75;;;8.87;59.03
75604;BME280;64187;51.010;13.792;2024-03-06T11:50:21;100904.19;;;8.77;59.09
75604;BME280;64187;51.010;13.792;2024-03-06T11:55:20;100897.34;;;8.74;60.85
75604;BME280;64187;51.010;13.792;2024-03-06T12:00:23;100900.53;;;8.65;61.26
75604;BME280;64187;51.010;13.792;2024-03-06T12:05:24;100906.00;;;8.90;61.95
75604;BME280;64187;51.010;13.792;2024-03-06T12:10:25;100900.81;;;8.88;61.48
75604;BME280;64187;51.010;13.792;2024-03-06T12:15:24;100904.13;;;9.22;60.31
75604;BME280;64187;51.010;13.792;2024-03-06T12:20:24;100907.38;;;8.99;61.68
75604;BME280;64187;51.010;13.792;2024-03-06T12:25:25;100913.94;;;8.78;62.68
75604;BME280;64187;51.010;13.792;2024-03-06T12:30:24;100917.03;;;8.81;60.68
75604;BME280;64187;51.010;13.792;2024-03-06T12:35:27;100916.50;;;8.66;62.12
75604;BME280;64187;51.010;13.792;2024-03-06T12:40:26;100913.69;;;8.41;62.36
75604;BME280;64187;51.010;13.792;2024-03-06T12:45:27;100907.84;;;8.51;61.51
75604;BME280;64187;51.010;13.792;2024-03-06T12:50:26;100903.34;;;8.83;59.90
75604;BME280;64187;51.010;13.792;2024-03-06T12:55:24;100910.09;;;8.54;58.64
75604;BME280;64187;51.010;13.792;2024-03-06T13:00:24;100909.69;;;8.57;59.69
75604;BME280;64187;51.010;13.792;2024-03-06T13:05:23;100906.59;;;8.92;58.48
75604;BME280;64187;51.010;13.792;2024-03-06T13:10:23;100908.13;;;9.13;58.04
75604;BME280;64187;51.010;13.792;2024-03-06T13:15:22;100909.38;;;9.42;55.82
75604;BME280;64187;51.010;13.792;2024-03-06T13:20:21;100909.53;;;9.72;54.76
75604;BME280;64187;51.010;13.792;2024-03-06T13:25:20;100911.94;;;9.80;53.22
75604;BME280;64187;51.010;13.792;2024-03-06T13:30:20;100897.31;;;9.44;53.81
75604;BME280;64187;51.010;13.792;2024-03-06T13:35:18;100903.47;;;9.52;53.32
75604;BME280;64187;51.010;13.792;2024-03-06T13:40:17;100899.81;;;9.14;54.09
75604;BME280;64187;51.010;13.792;2024-03-06T13:45:16;100907.31;;;9.12;53.14
75604;BME280;64187;51.010;13.792;2024-03-06T13:50:16;100903.31;;;8.90;53.16
75604;BME280;64187;51.010;13.792;2024-03-06T13:55:17;100908.13;;;9.44;52.65
75604;BME280;64187;51.010;13.792;2024-03-06T14:00:16;100898.31;;;9.68;52.93
75604;BME280;64187;51.010;13.792;2024-03-06T14:05:18;100905.88;;;9.10;53.73
75604;BME280;64187;51.010;13.792;2024-03-06T14:10:23;100909.28;;;8.92;53.46
75604;BME280;64187;51.010;13.792;2024-03-06T14:15:23;100907.81;;;8.57;54.29
75604;BME280;64187;51.010;13.792;2024-03-06T14:20:23;100910.28;;;8.59;54.57
75604;BME280;64187;51.010;13.792;2024-03-06T14:25:22;100915.47;;;8.99;54.14
75604;BME280;64187;51.010;13.792;2024-03-06T14:30:22;100915.31;;;8.94;51.61
75604;BME280;64187;51.010;13.792;2024-03-06T14:35:21;100909.28;;;8.60;52.90
75604;BME280;64187;51.010;13.792;2024-03-06T14:40:19;100916.50;;;8.66;52.23
75604;BME280;64187;51.010;13.792;2024-03-06T14:45:19;100911.00;;;8.86;52.51
75604;BME280;64187;51.010;13.792;2024-03-06T14:50:18;100912.56;;;9.00;52.38
75604;BME280;64187;51.010;13.792;2024-03-06T14:55:18;100920.06;;;8.60;51.73
75604;BME280;64187;51.010;13.792;2024-03-06T15:00:18;100926.81;;;8.82;52.87
75604;BME280;64187;51.010;13.792;2024-03-06T15:05:19;100933.56;;;8.60;52.96
75604;BME280;64187;51.010;13.792;2024-03-06T15:10:19;100932.31;;;8.62;52.86
75604;BME280;64187;51.010;13.792;2024-03-06T15:15:18;100926.66;;;8.64;53.86
75604;BME280;64187;51.010;13.792;2024-03-06T15:20:18;100934.38;;;8.60;52.56
75604;BME280;64187;51.010;13.792;2024-03-06T15:25:17;100941.06;;;8.51;52.26
75604;BME280;64187;51.010;13.792;2024-03-06T15:30:16;100937.56;;;8.37;52.66
75604;BME280;64187;51.010;13.792;2024-03-06T15:35:15;100942.34;;;8.29;52.66
75604;BME280;64187;51.010;13.792;2024-03-06T15:40:14;100940.25;;;8.37;53.45
75604;BME280;64187;51.010;13.792;2024-03-06T15:45:13;100934.47;;;8.20;53.59
75604;BME280;64187;51.010;13.792;2024-03-06T15:50:12;100931.75;;;8.27;51.95
75604;BME280;64187;51.010;13.792;2024-03-06T15:55:12;100941.97;;;8.12;51.62
75604;BME280;64187;51.010;13.792;2024-03-06T16:00:11;100940.75;;;8.08;52.21
75604;BME280;64187;51.010;13.792;2024-03-06T16:05:13;100942.41;;;7.95;52.98
75604;BME280;64187;51.010;13.792;2024-03-06T16:10:12;100950.50;;;7.82;53.45
75604;BME280;64187;51.010;13.792;2024-03-06T16:15:11;100954.88;;;7.83;53.65
75604;BME280;64187;51.010;13.792;2024-03-06T16:20:10;100960.66;;;7.60;53.88
75604;BME280;64187;51.010;13.792;2024-03-06T16:25:09;100962.34;;;7.48;54.52
75604;BME280;64187;51.010;13.792;2024-03-06T16:30:08;100968.13;;;7.38;55.20
75604;BME280;64187;51.010;13.792;2024-03-06T16:35:08;100979.50;;;7.33;55.45
75604;BME280;64187;51.010;13.792;2024-03-06T16:40:08;100972.16;;;6.94;56.20
75604;BME280;64187;51.010;13.792;2024-03-06T16:45:08;100985.00;;;6.92;56.31
75604;BME280;64187;51.010;13.792;2024-03-06T16:50:10;100984.50;;;6.75;57.19
75604;BME280;64187;51.010;13.792;2024-03-06T16:55:09;100992.22;;;6.85;56.69
75604;BME280;64187;51.010;13.792;2024-03-06T17:00:09;100989.50;;;6.78;57.17
75604;BME280;64187;51.010;13.792;2024-03-06T17:05:08;101001.06;;;6.72;57.52
75604;BME280;64187;51.010;13.792;2024-03-06T17:10:09;101013.34;;;6.46;58.83
75604;BME280;64187;51.010;13.792;2024-03-06T17:15:08;101014.47;;;6.65;58.51
75604;BME280;64187;51.010;13.792;2024-03-06T17:20:08;101025.59;;;6.56;59.20
75604;BME280;64187;51.010;13.792;2024-03-06T17:25:08;101025.81;;;6.54;60.25
75604;BME280;64187;51.010;13.792;2024-03-06T17:30:07;101031.59;;;6.51;60.88
75604;BME280;64187;51.010;13.792;2024-03-06T17:35:07;101031.06;;;6.34;61.89
75604;BME280;64187;51.010;13.792;2024-03-06T17:40:07;101039.66;;;6.23;62.68
75604;BME280;64187;51.010;13.792;2024-03-06T17:45:10;101048.13;;;6.20;63.14
75604;BME280;64187;51.010;13.792;2024-03-06T17:50:09;101054.06;;;6.15;63.74
75604;BME280;64187;51.010;13.792;2024-03-06T17:55:11;101048.47;;;6.10;63.95
75604;BME280;64187;51.010;13.792;2024-03-06T18:00:14;101051.72;;;6.06;64.36
75604;BME280;64187;51.010;13.792;2024-03-06T18:05:13;101056.66;;;6.02;64.48
75604;BME280;64187;51.010;13.792;2024-03-06T18:10:12;101054.28;;;5.92;64.87
75604;BME280;64187;51.010;13.792;2024-03-06T18:15:12;101057.44;;;5.96;64.79
75604;BME280;64187;51.010;13.792;2024-03-06T18:20:11;101061.00;;;5.81;65.28
75604;BME280;64187;51.010;13.792;2024-03-06T18:25:10;101058.34;;;5.81;64.92
75604;BME280;64187;51.010;13.792;2024-03-06T18:30:09;101056.47;;;5.60;65.84
75604;BME280;64187;51.010;13.792;2024-03-06T18:35:08;101063.03;;;5.58;66.18
75604;BME280;64187;51.010;13.792;2024-03-06T18:40:07;101060.09;;;5.53;65.91
75604;BME280;64187;51.010;13.792;2024-03-06T18:45:07;101068.63;;;5.20;67.64
75604;BME280;64187;51.010;13.792;2024-03-06T18:50:06;101068.59;;;5.35;66.96
75604;BME280;64187;51.010;13.792;2024-03-06T18:55:06;101066.91;;;5.34;66.96
75604;BME280;64187;51.010;13.792;2024-03-06T19:00:06;101074.91;;;5.27;67.37
75604;BME280;64187;51.010;13.792;2024-03-06T19:05:05;101081.13;;;5.13;67.78
75604;BME280;64187;51.010;13.792;2024-03-06T19:10:05;101077.25;;;5.01;68.34
75604;BME280;64187;51.010;13.792;2024-03-06T19:15:05;101086.34;;;4.85;69.24
75604;BME280;64187;51.010;13.792;2024-03-06T19:20:05;101089.22;;;4.83;69.85
75604;BME280;64187;51.010;13.792;2024-03-06T19:25:08;101093.00;;;4.74;70.05
75604;BME280;64187;51.010;13.792;2024-03-06T19:30:08;101094.13;;;4.65;71.04
75604;BME280;64187;51.010;13.792;2024-03-06T19:35:08;101103.06;;;4.72;70.97
75604;BME280;64187;51.010;13.792;2024-03-06T19:40:07;101105.47;;;4.67;71.37
75604;BME280;64187;51.010;13.792;2024-03-06T19:45:08;101115.91;;;4.62;72.66
75604;BME280;64187;51.010;13.792;2024-03-06T19:50:08;101112.59;;;4.89;71.00
75604;BME280;64187;51.010;13.792;2024-03-06T19:55:08;101115.38;;;4.81;72.07
75604;BME280;64187;51.010;13.792;2024-03-06T20:00:07;101106.88;;;5.44;69.55
75604;BME280;64187;51.010;13.792;2024-03-06T20:05:10;101106.78;;;5.01;69.81
75604;BME280;64187;51.010;13.792;2024-03-06T20:10:13;101111.78;;;4.74;72.34
75604;BME280;64187;51.010;13.792;2024-03-06T20:15:12;101104.91;;;7.56;100.00
75604;BME280;64187;51.010;13.792;2024-03-06T20:20:11;101088.94;;;10.09;69.88
75604;BME280;64187;51.010;13.792;2024-03-06T20:25:11;101100.91;;;9.12;56.62
75604;BME280;64187;51.010;13.792;2024-03-06T20:35:30;101100.91;;;6.28;65.85
75604;BME280;64187;51.010;13.792;2024-03-06T20:40:29;101103.09;;;6.17;67.45
75604;BME280;64187;51.010;13.792;2024-03-06T20:45:28;101096.44;;;6.13;67.64
75604;BME280;64187;51.010;13.792;2024-03-06T20:50:27;101101.31;;;5.81;68.78
75604;BME280;64187;51.010;13.792;2024-03-06T20:55:26;101100.34;;;5.89;68.73
75604;BME280;64187;51.010;13.792;2024-03-06T21:00:25;101106.63;;;5.38;71.39
75604;BME280;64187;51.010;13.792;2024-03-06T21:05:24;101097.44;;;5.48;71.88
75604;BME280;64187;51.010;13.792;2024-03-06T21:10:23;101101.91;;;5.98;69.94
75604;BME280;64187;51.010;13.792;2024-03-06T21:15:22;101095.34;;;5.65;69.73
75604;BME280;64187;51.010;13.792;2024-03-06T21:20:23;101091.72;;;5.72;70.85
75604;BME280;64187;51.010;13.792;2024-03-06T21:25:22;101092.13;;;5.76;71.25
75604;BME280;64187;51.010;13.792;2024-03-06T21:30:22;101099.44;;;6.25;69.74
75604;BME280;64187;51.010;13.792;2024-03-06T21:35:21;101099.13;;;6.13;69.28
75604;BME280;64187;51.010;13.792;2024-03-06T21:40:23;101091.97;;;6.20;69.51
75604;BME280;64187;51.010;13.792;2024-03-06T21:45:22;101092.59;;;6.22;69.71
75604;BME280;64187;51.010;13.792;2024-03-06T21:50:24;101096.31;;;6.21;68.32
75604;BME280;64187;51.010;13.792;2024-03-06T21:55:23;101104.91;;;6.10;68.97
75604;BME280;64187;51.010;13.792;2024-03-06T22:00:22;101101.63;;;6.15;68.10
75604;BME280;64187;51.010;13.792;2024-03-06T22:05:21;101101.94;;;5.83;69.54
75604;BME280;64187;51.010;13.792;2024-03-06T22:10:20;101105.31;;;6.35;67.69
75604;BME280;64187;51.010;13.792;2024-03-06T22:15:19;101102.38;;;6.30;67.39
75604;BME280;64187;51.010;13.792;2024-03-06T22:20:17;101100.16;;;6.34;67.34
75604;BME280;64187;51.010;13.792;2024-03-06T22:25:17;101104.38;;;5.78;69.17
75604;BME280;64187;51.010;13.792;2024-03-06T22:30:17;101100.41;;;6.17;67.85
75604;BME280;64187;51.010;13.792;2024-03-06T22:35:16;101103.09;;;6.17;68.66
75604;BME280;64187;51.010;13.792;2024-03-06T22:40:15;101104.16;;;5.95;69.08
75604;BME280;64187;51.010;13.792;2024-03-06T22:45:13;101109.19;;;6.26;68.15
75604;BME280;64187;51.010;13.792;2024-03-06T22:50:13;101098.94;;;6.15;69.13
75604;BME280;64187;51.010;13.792;2024-03-06T22:55:11;101092.34;;;6.17;68.98
75604;BME280;64187;51.010;13.792;2024-03-06T23:00:11;101098.59;;;6.46;68.25
75604;BME280;64187;51.010;13.792;2024-03-06T23:05:27;101095.53;;;6.28;69.08
75604;BME280;64187;51.010;13.792;2024-03-06T23:10:26;101088.25;;;6.50;68.37
75604;BME280;64187;51.010;13.792;2024-03-06T23:15:25;101089.66;;;6.74;67.30
75604;BME280;64187;51.010;13.792;2024-03-06T23:20:24;101093.47;;;6.93;68.06
75604;BME280;64187;51.010;13.792;2024-03-06T23:25:23;101102.19;;;6.60;72.55
75604;BME280;64187;51.010;13.792;2024-03-06T23:30:23;101105.56;;;6.40;75.39
75604;BME280;64187;51.010;13.792;2024-03-06T23:35:22;101102.97;;;6.54;76.03
75604;BME280;64187;51.010;13.792;2024-03-06T23:40:22;101106.91;;;6.58;76.55
75604;BME280;64187;51.010;13.792;2024-03-06T23:45:21;101100.81;;;6.42;78.69
75604;BME280;64187;51.010;13.792;2024-03-06T23:50:20;101103.09;;;6.45;80.75
75604;BME280;64187;51.010;13.792;2024-03-06T23:55:21;101103.66;;;5.91;84.39
